Nearby METAR Reports

 

PAEN - Kenai, Alaska, USA
Distance from station: ESE 2mi, 4km
Updated: Tue, 28-Jan-2020 4:53am AKST
Mostly cloudy
Mostly cloudy
 Wind from calm
Wind: Calm
Temperature: -2°F , -19°C
Dew Point: -8°F , -22°C
Humidity: 77%
Barometer: 29.33 inHg , 993.2 hPa
Clouds: Mostly cloudy
Visibility: 8 miles , 13 km
Cloud details: Mostly cloudy 4200 ft
Mostly cloudy 6000 ft
2020/01/28 13:53 PAEN 281353Z AUTO 00000KT 8SM BKN042 BKN060 M19/M22 A2933 RMK AO2 SNB16E44 SLP935 P0000 T11941222 TSNO
PASX - Soldotna, Alaska, USA
Distance from station: SE 12mi, 19km
Updated: Tue, 28-Jan-2020 4:56am AKST
Few Clouds
Few Clouds
 Wind from calm
Wind: Calm
Temperature: -6°F , -21°C
Dew Point: -9°F , -23°C
Humidity: 84%
Barometer: 29.35 inHg , 993.9 hPa
Clouds: Few Clouds
Visibility: 10 miles , 16 km
Cloud details: Few Clouds 6000 ft
2020/01/28 13:56 PASX 281356Z AUTO 00000KT 10SM FEW060 M21/M23 A2935 RMK AO2 SNE31 SLP948 P0000 T12111233 FZRANO
 
PANC - Anchorage Intl, Alaska, USA
Distance from station: NE 59mi, 96km
Updated: Tue, 28-Jan-2020 4:53am AKST
Clear
Clear
 Wind from SSE
Wind: SSE 5 mph , 7 km/h
Temperature: -0°F , -18°C
Wind Chill: -11°F , -24°C
Dew Point: -8°F , -22°C
Humidity: 71%
Barometer: 29.32 inHg , 992.9 hPa
Clouds: Clear
Visibility: 10 miles , 16 km
2020/01/28 13:53 PANC 281353Z 15004KT 10SM CLR M18/M22 A2932 RMK AO2 SLP933 I1000 T11831222
PALH - Anchorage/Lake H, Alaska, USA
Distance from station: NE 61mi, 99km
Updated: Tue, 28-Jan-2020 4:53am AKST
Partly cloudy
Partly cloudy
 Wind from SSE
Wind: SSE 3 mph , 6 km/h
Temperature: -6°F , -21°C
Dew Point: -11°F , -24°C
Humidity: 77%
Barometer: 29.34 inHg , 993.6 hPa
Clouds: Partly cloudy
Visibility: 10 miles , 16 km
Cloud details: Partly cloudy 10000 ft
2020/01/28 13:53 PALH 281353Z 16003KT 10SM SCT100 M21/M24 A2934 RMK AO2 SLP935 T12111239
 
PAHO - Homer, Alaska, USA
Distance from station: S 66mi, 106km
Updated: Tue, 28-Jan-2020 5:45am AKST
Light snow, Mist, Overcast
Light snow, Mist, Overcast
 Wind from ENE
Wind: ENE 3 mph , 6 km/h
Temperature: 12°F , -11°C
Dew Point: 9°F , -13°C
Humidity: 85%
Barometer: 29.30 inHg , 992.2 hPa
Summary: Light snow, Mist
Clouds: Overcast
Visibility: 3 miles , 5 km
Cloud details: Overcast 3100 ft
2020/01/28 14:45 PAHO 281445Z 06003KT 3SM -SN BR OVC031 M11/M13 A2930 RMK AO2 P0001 T11111128
PAMR - Anchorage/Merril, Alaska, USA
Distance from station: NE 66mi, 106km
Updated: Tue, 28-Jan-2020 4:53am AKST
Few Clouds
Few Clouds
 Wind from E
Wind: E 3 mph , 6 km/h
Temperature: -11°F , -24°C
Dew Point: -17°F , -27°C
Humidity: 76%
Barometer: 29.32 inHg , 992.9 hPa
Clouds: Few Clouds
Visibility: 10 miles , 16 km
Cloud details: Few Clouds 800 ft
2020/01/28 13:53 PAMR 281353Z 09003KT 10SM FEW008 M24/M27 A2932 RMK AO2 SLP934 T12391267 $
 
PAED - Elmendorf Afb, Alaska, USA
Distance from station: NE 69mi, 110km
Updated: Tue, 28-Jan-2020 4:56am AKST
Clear
Clear
 Wind from NE
Wind: NE 3 mph , 6 km/h
Temperature: -8°F , -22°C
Dew Point: -13°F , -25°C
Humidity: 77%
Barometer: 29.31 inHg , 992.5 hPa
Clouds: Clear
Visibility: 10 miles , 16 km
2020/01/28 13:56 PAED 281356Z AUTO 04003KT 10SM CLR M22/M25 A2931 RMK AO2 SLP926 T12241251
PAWD - Seward, Alaska, USA
Distance from station: ESE 71mi, 115km
Updated: Tue, 28-Jan-2020 4:53am AKST
Partly cloudy
Partly cloudy
 Wind from NNW
Wind: NNW 9 mph , 15 km/h
Temperature: 12°F , -11°C
Wind Chill: -0°F , -18°C
Dew Point: 9°F , -13°C
Humidity: 85%
Barometer: 29.29 inHg , 991.9 hPa
Clouds: Partly cloudy
Visibility: 10 miles , 16 km
Cloud details: Few Clouds 3900 ft
Partly cloudy 9000 ft
2020/01/28 13:53 PAWD 281353Z AUTO 34008KT 10SM FEW039 SCT090 M11/M13 A2929 RMK AO2 SLP920 T11061128 TSNO
 
PASC - Deadhorse, Alaska, USA
Distance from station: ENE 670mi, 1078km
Updated: Tue, 28-Jan-2020 4:53am AKST
Clear
Clear
 Wind from SW
Wind: SW 9 mph , 15 km/h
Temperature: -42°F , -41°C
Wind Chill: -67°F , -55°C
Barometer: 30.18 inHg , 1022 hPa
Clouds: Clear
Visibility: 10 miles , 16 km
2020/01/28 13:53 PASC 281353Z 23008KT 10SM CLR M41/ A3018 RMK AO2 SLP224 T1406
PAAD - Point Thomson, Alaska, USA
Distance from station: ENE 680mi, 1094km
Updated: Tue, 28-Jan-2020 5:35am AKST
Overcast
Overcast
 Wind from WSW
Wind: WSW 13 mph , 20 km/h
Temperature: -33°F , -36°C
Wind Chill: -60°F , -51°C
Dew Point: -40°F , -40°C
Humidity: 66%
Barometer: 30.17 inHg , 1021.7 hPa
Clouds: Overcast
Visibility: 10 miles , 16 km
Cloud details: Mostly cloudy 6000 ft
Overcast 8000 ft
2020/01/28 14:35 PAAD 281435Z AUTO 25011KT 10SM BKN060 OVC080 M36/M40 A3017 RMK AO2 T13601400


kenaipeople.com website

Dans Automotive

Lower Peninsula Power Sports

Freddies RoadHouse

Alaska Weather Net